sensor_id;sensor_type;location;lat;lon;timestamp;pressure;altitude;pressure_sealevel;temperature;humidity
72116;BME280;59991;52.140;5.428;2023-04-10T00:00:28;102140.97;;;8.61;70.23
72116;BME280;59991;52.140;5.428;2023-04-10T00:01:01;102145.63;;;8.61;70.39
72116;BME280;59991;52.140;5.428;2023-04-10T00:01:32;102142.09;;;8.60;70.62
72116;BME280;59991;52.140;5.428;2023-04-10T00:02:06;102146.41;;;8.61;69.99
72116;BME280;59991;52.140;5.428;2023-04-10T00:02:37;102140.50;;;8.59;70.19
72116;BME280;59991;52.140;5.428;2023-04-10T00:03:09;102134.28;;;8.59;70.34
72116;BME280;59991;52.140;5.428;2023-04-10T00:03:41;102134.28;;;8.59;70.33
72116;BME280;59991;52.140;5.428;2023-04-10T00:04:13;102136.19;;;8.58;70.07
72116;BME280;59991;52.140;5.428;2023-04-10T00:04:46;102144.03;;;8.60;69.93
72116;BME280;59991;52.140;5.428;2023-04-10T00:05:17;102133.81;;;8.57;69.52
72116;BME280;59991;52.140;5.428;2023-04-10T00:05:49;102129.50;;;8.56;70.12
72116;BME280;59991;52.140;5.428;2023-04-10T00:06:21;102127.09;;;8.54;70.10
72116;BME280;59991;52.140;5.428;2023-04-10T00:06:52;102136.06;;;8.55;70.39
72116;BME280;59991;52.140;5.428;2023-04-10T00:07:24;102120.88;;;8.54;69.75
72116;BME280;59991;52.140;5.428;2023-04-10T00:07:55;102126.31;;;8.54;69.93
72116;BME280;59991;52.140;5.428;2023-04-10T00:08:27;102117.03;;;8.55;69.72
72116;BME280;59991;52.140;5.428;2023-04-10T00:08:58;102122.00;;;8.53;69.91
72116;BME280;59991;52.140;5.428;2023-04-10T00:09:29;102122.78;;;8.53;70.16
72116;BME280;59991;52.140;5.428;2023-04-10T00:10:01;102116.56;;;8.53;70.18
72116;BME280;59991;52.140;5.428;2023-04-10T00:10:32;102118.16;;;8.54;70.49
72116;BME280;59991;52.140;5.428;2023-04-10T00:11:04;102118.16;;;8.54;70.34
72116;BME280;59991;52.140;5.428;2023-04-10T00:11:36;102118.16;;;8.54;69.84
72116;BME280;59991;52.140;5.428;2023-04-10T00:12:07;102120.41;;;8.52;70.16
72116;BME280;59991;52.140;5.428;2023-04-10T00:12:39;102123.13;;;8.52;70.08
72116;BME280;59991;52.140;5.428;2023-04-10T00:13:10;102110.31;;;8.52;70.25
72116;BME280;59991;52.140;5.428;2023-04-10T00:13:41;102113.38;;;8.51;69.86
72116;BME280;59991;52.140;5.428;2023-04-10T00:14:13;102118.81;;;8.51;69.92
72116;BME280;59991;52.140;5.428;2023-04-10T00:14:44;102116.88;;;8.51;69.86
72116;BME280;59991;52.140;5.428;2023-04-10T00:15:16;102121.53;;;8.51;69.95
72116;BME280;59991;52.140;5.428;2023-04-10T00:15:47;102118.00;;;8.50;69.71
72116;BME280;59991;52.140;5.428;2023-04-10T00:16:20;102116.88;;;8.51;70.14
72116;BME280;59991;52.140;5.428;2023-04-10T00:16:51;102114.16;;;8.51;70.07
72116;BME280;59991;52.140;5.428;2023-04-10T00:17:23;102123.13;;;8.52;69.91
72116;BME280;59991;52.140;5.428;2023-04-10T00:17:55;102121.53;;;8.51;70.05
72116;BME280;59991;52.140;5.428;2023-04-10T00:18:26;102111.78;;;8.50;70.07
72116;BME280;59991;52.140;5.428;2023-04-10T00:18:58;102117.22;;;8.50;70.13
72116;BME280;59991;52.140;5.428;2023-04-10T00:19:30;102118.81;;;8.51;70.49
72116;BME280;59991;52.140;5.428;2023-04-10T00:20:02;102113.69;;;8.49;70.12
72116;BME280;59991;52.140;5.428;2023-04-10T00:20:35;102111.00;;;8.49;70.04
72116;BME280;59991;52.140;5.428;2023-04-10T00:21:06;102109.06;;;8.50;70.56
72116;BME280;59991;52.140;5.428;2023-04-10T00:21:38;102113.69;;;8.49;71.08
72116;BME280;59991;52.140;5.428;2023-04-10T00:22:09;102109.06;;;8.50;70.23
72116;BME280;59991;52.140;5.428;2023-04-10T00:22:41;102111.00;;;8.49;70.58
72116;BME280;59991;52.140;5.428;2023-04-10T00:23:13;102102.38;;;8.47;70.40
72116;BME280;59991;52.140;5.428;2023-04-10T00:23:44;102103.97;;;8.48;70.59
72116;BME280;59991;52.140;5.428;2023-04-10T00:24:16;102104.28;;;8.47;70.65
72116;BME280;59991;52.140;5.428;2023-04-10T00:24:47;102104.66;;;8.45;70.38
72116;BME280;59991;52.140;5.428;2023-04-10T00:25:19;102103.84;;;8.45;70.45
72116;BME280;59991;52.140;5.428;2023-04-10T00:25:53;102098.41;;;8.45;71.02
72116;BME280;59991;52.140;5.428;2023-04-10T00:26:24;102102.25;;;8.44;70.28
72116;BME280;59991;52.140;5.428;2023-04-10T00:26:57;102099.22;;;8.45;70.45
72116;BME280;59991;52.140;5.428;2023-04-10T00:27:28;102096.81;;;8.44;70.50
72116;BME280;59991;52.140;5.428;2023-04-10T00:28:00;102094.91;;;8.44;70.34
72116;BME280;59991;52.140;5.428;2023-04-10T00:28:31;102102.25;;;8.44;70.13
72116;BME280;59991;52.140;5.428;2023-04-10T00:29:03;102096.03;;;8.43;69.98
72116;BME280;59991;52.140;5.428;2023-04-10T00:29:34;102092.19;;;8.44;70.54
72116;BME280;59991;52.140;5.428;2023-04-10T00:30:06;102091.38;;;8.44;70.73
72116;BME280;59991;52.140;5.428;2023-04-10T00:30:38;102087.88;;;8.43;71.07
72116;BME280;59991;52.140;5.428;2023-04-10T00:31:09;102093.31;;;8.43;70.94
72116;BME280;59991;52.140;5.428;2023-04-10T00:31:41;102087.88;;;8.43;70.64
72116;BME280;59991;52.140;5.428;2023-04-10T00:32:13;102089.78;;;8.43;70.61
72116;BME280;59991;52.140;5.428;2023-04-10T00:32:44;102092.50;;;8.43;70.75
72116;BME280;59991;52.140;5.428;2023-04-10T00:33:16;102089.78;;;8.43;71.01
72116;BME280;59991;52.140;5.428;2023-04-10T00:33:47;102085.00;;;8.40;70.89
72116;BME280;59991;52.140;5.428;2023-04-10T00:34:19;102087.72;;;8.40;70.74
72116;BME280;59991;52.140;5.428;2023-04-10T00:34:50;102077.97;;;8.39;70.82
72116;BME280;59991;52.140;5.428;2023-04-10T00:35:22;102079.09;;;8.38;71.04
72116;BME280;59991;52.140;5.428;2023-04-10T00:35:53;102078.66;;;8.36;70.76
72116;BME280;59991;52.140;5.428;2023-04-10T00:36:25;102078.66;;;8.36;70.74
72116;BME280;59991;52.140;5.428;2023-04-10T00:36:57;102074.34;;;8.35;70.96
72116;BME280;59991;52.140;5.428;2023-04-10T00:37:29;102081.69;;;8.34;70.57
72116;BME280;59991;52.140;5.428;2023-04-10T00:38:01;102077.38;;;8.33;70.80
72116;BME280;59991;52.140;5.428;2023-04-10T00:38:32;102076.25;;;8.34;70.61
72116;BME280;59991;52.140;5.428;2023-04-10T00:39:04;102075.47;;;8.34;70.98
72116;BME280;59991;52.140;5.428;2023-04-10T00:39:35;102083.63;;;8.34;70.59
72116;BME280;59991;52.140;5.428;2023-04-10T00:40:07;102079.78;;;8.35;71.02
72116;BME280;59991;52.140;5.428;2023-04-10T00:40:38;102082.50;;;8.35;70.96
72116;BME280;59991;52.140;5.428;2023-04-10T00:41:10;102073.22;;;8.36;70.68
72116;BME280;59991;52.140;5.428;2023-04-10T00:41:41;102075.13;;;8.35;71.04
72116;BME280;59991;52.140;5.428;2023-04-10T00:42:13;102074.34;;;8.35;71.09
72116;BME280;59991;52.140;5.428;2023-04-10T00:42:44;102073.22;;;8.36;70.52
72116;BME280;59991;52.140;5.428;2023-04-10T00:43:17;102070.81;;;8.34;70.20
72116;BME280;59991;52.140;5.428;2023-04-10T00:43:55;102073.53;;;8.34;70.35
72116;BME280;59991;52.140;5.428;2023-04-10T00:44:27;102070.03;;;8.34;71.10
72116;BME280;59991;52.140;5.428;2023-04-10T00:44:59;102070.03;;;8.34;71.19
72116;BME280;59991;52.140;5.428;2023-04-10T00:45:30;102070.03;;;8.34;71.06
72116;BME280;59991;52.140;5.428;2023-04-10T00:46:03;102068.44;;;8.32;71.22
72116;BME280;59991;52.140;5.428;2023-04-10T00:46:36;102069.22;;;8.33;71.15
72116;BME280;59991;52.140;5.428;2023-04-10T00:47:08;102067.94;;;8.30;71.39
72116;BME280;59991;52.140;5.428;2023-04-10T00:47:39;102071.44;;;8.31;71.11
72116;BME280;59991;52.140;5.428;2023-04-10T00:48:11;102065.22;;;8.30;71.67
72116;BME280;59991;52.140;5.428;2023-04-10T00:48:43;102070.66;;;8.30;71.66
72116;BME280;59991;52.140;5.428;2023-04-10T00:49:15;102066.81;;;8.31;71.46
72116;BME280;59991;52.140;5.428;2023-04-10T00:49:49;102073.69;;;8.29;70.89
72116;BME280;59991;52.140;5.428;2023-04-10T00:50:21;102068.25;;;8.29;71.74
72116;BME280;59991;52.140;5.428;2023-04-10T00:50:52;102072.09;;;8.28;70.99
72116;BME280;59991;52.140;5.428;2023-04-10T00:51:24;102068.59;;;8.27;71.01
72116;BME280;59991;52.140;5.428;2023-04-10T00:51:56;102069.75;;;8.26;71.09
72116;BME280;59991;52.140;5.428;2023-04-10T00:52:29;102063.50;;;8.26;70.69
72116;BME280;59991;52.140;5.428;2023-04-10T00:53:01;102062.38;;;8.27;71.33
72116;BME280;59991;52.140;5.428;2023-04-10T00:53:33;102068.94;;;8.26;70.94
72116;BME280;59991;52.140;5.428;2023-04-10T00:54:04;102070.88;;;8.25;71.09
72116;BME280;59991;52.140;5.428;2023-04-10T00:54:37;102065.44;;;8.25;71.25
72116;BME280;59991;52.140;5.428;2023-04-10T00:55:09;102068.94;;;8.26;71.31
72116;BME280;59991;52.140;5.428;2023-04-10T00:55:42;102062.72;;;8.25;71.15
72116;BME280;59991;52.140;5.428;2023-04-10T00:56:13;102067.81;;;8.27;71.67
72116;BME280;59991;52.140;5.428;2023-04-10T00:56:45;102058.09;;;8.26;71.17
72116;BME280;59991;52.140;5.428;2023-04-10T00:57:17;102066.22;;;8.26;71.32
72116;BME280;59991;52.140;5.428;2023-04-10T00:57:49;102063.50;;;8.26;70.99
72116;BME280;59991;52.140;5.428;2023-04-10T00:58:20;102053.44;;;8.26;71.42
72116;BME280;59991;52.140;5.428;2023-04-10T00:58:52;102058.88;;;8.26;71.14
72116;BME280;59991;52.140;5.428;2023-04-10T00:59:23;102061.22;;;8.28;71.12
72116;BME280;59991;52.140;5.428;2023-04-10T00:59:55;102056.16;;;8.26;71.13
72116;BME280;59991;52.140;5.428;2023-04-10T01:00:27;102063.50;;;8.26;71.42
72116;BME280;59991;52.140;5.428;2023-04-10T01:00:58;102059.22;;;8.25;71.52
72116;BME280;59991;52.140;5.428;2023-04-10T01:01:30;102062.72;;;8.25;72.18
72116;BME280;59991;52.140;5.428;2023-04-10T01:02:02;102062.72;;;8.25;71.92
72116;BME280;59991;52.140;5.428;2023-04-10T01:02:34;102059.22;;;8.25;72.06
72116;BME280;59991;52.140;5.428;2023-04-10T01:03:10;102057.28;;;8.25;71.40
72116;BME280;59991;52.140;5.428;2023-04-10T01:03:42;102062.72;;;8.25;71.53
72116;BME280;59991;52.140;5.428;2023-04-10T01:04:14;102065.44;;;8.25;71.33
72116;BME280;59991;52.140;5.428;2023-04-10T01:04:47;102061.94;;;8.25;71.57
72116;BME280;59991;52.140;5.428;2023-04-10T01:05:18;102061.94;;;8.25;72.03
72116;BME280;59991;52.140;5.428;2023-04-10T01:06:14;102058.75;;;8.23;71.63
72116;BME280;59991;52.140;5.428;2023-04-10T01:07:01;102066.09;;;8.22;72.40
72116;BME280;59991;52.140;5.428;2023-04-10T01:07:50;102063.72;;;8.21;71.78
72116;BME280;59991;52.140;5.428;2023-04-10T01:08:40;102060.19;;;8.20;72.15
72116;BME280;59991;52.140;5.428;2023-04-10T01:10:12;102056.22;;;8.18;71.61
72116;BME280;59991;52.140;5.428;2023-04-10T01:10:55;102056.53;;;8.16;72.02
72116;BME280;59991;52.140;5.428;2023-04-10T01:11:51;102053.81;;;8.16;72.22
72116;BME280;59991;52.140;5.428;2023-04-10T01:12:49;102054.63;;;8.17;72.16
72116;BME280;59991;52.140;5.428;2023-04-10T01:13:30;102056.53;;;8.16;71.94
72116;BME280;59991;52.140;5.428;2023-04-10T01:15:08;102053.34;;;8.14;71.81
72116;BME280;59991;52.140;5.428;2023-04-10T01:15:53;102049.84;;;8.14;72.01
72116;BME280;59991;52.140;5.428;2023-04-10T01:16:42;102044.41;;;8.14;71.72
72116;BME280;59991;52.140;5.428;2023-04-10T01:17:21;102047.13;;;8.14;72.06
72116;BME280;59991;52.140;5.428;2023-04-10T01:18:08;102047.44;;;8.12;72.27
72116;BME280;59991;52.140;5.428;2023-04-10T01:18:46;102049.84;;;8.14;72.40
72116;BME280;59991;52.140;5.428;2023-04-10T01:19:26;102056.88;;;8.15;72.68
72116;BME280;59991;52.140;5.428;2023-04-10T01:20:09;102052.56;;;8.14;72.52
72116;BME280;59991;52.140;5.428;2023-04-10T01:20:42;102049.84;;;8.14;72.41
72116;BME280;59991;52.140;5.428;2023-04-10T01:21:15;102046.31;;;8.13;72.71
72116;BME280;59991;52.140;5.428;2023-04-10T01:21:47;102046.66;;;8.12;72.29
72116;BME280;59991;52.140;5.428;2023-04-10T01:22:20;102042.03;;;8.12;72.12
72116;BME280;59991;52.140;5.428;2023-04-10T01:23:08;102042.03;;;8.12;72.30
72116;BME280;59991;52.140;5.428;2023-04-10T01:24:09;102038.19;;;8.13;72.23
72116;BME280;59991;52.140;5.428;2023-04-10T01:25:44;102033.88;;;8.12;72.68
72116;BME280;59991;52.140;5.428;2023-04-10T01:26:40;102035.78;;;8.12;72.78
72116;BME280;59991;52.140;5.428;2023-04-10T01:27:36;102030.34;;;8.12;72.40
72116;BME280;59991;52.140;5.428;2023-04-10T01:29:13;102028.75;;;8.11;72.27
72116;BME280;59991;52.140;5.428;2023-04-10T01:29:49;102033.41;;;8.10;72.41
72116;BME280;59991;52.140;5.428;2023-04-10T01:30:22;102029.88;;;8.10;72.65
72116;BME280;59991;52.140;5.428;2023-04-10T01:30:56;102030.22;;;8.08;72.23
72116;BME280;59991;52.140;5.428;2023-04-10T01:31:39;102031.81;;;8.09;72.85
72116;BME280;59991;52.140;5.428;2023-04-10T01:32:15;102031.81;;;8.09;72.53
72116;BME280;59991;52.140;5.428;2023-04-10T01:32:49;102031.81;;;8.09;72.33
72116;BME280;59991;52.140;5.428;2023-04-10T01:33:33;102030.22;;;8.08;72.49
72116;BME280;59991;52.140;5.428;2023-04-10T01:34:14;102028.66;;;8.07;72.41
72116;BME280;59991;52.140;5.428;2023-04-10T01:34:49;102024.03;;;8.08;72.76
72116;BME280;59991;52.140;5.428;2023-04-10T01:35:21;102023.22;;;8.07;72.70
72116;BME280;59991;52.140;5.428;2023-04-10T01:35:56;102029.78;;;8.06;73.32
72116;BME280;59991;52.140;5.428;2023-04-10T01:36:34;102022.75;;;8.05;72.81
72116;BME280;59991;52.140;5.428;2023-04-10T01:37:15;102027.38;;;8.05;72.81
72116;BME280;59991;52.140;5.428;2023-04-10T01:37:49;102033.94;;;8.04;72.70
72116;BME280;59991;52.140;5.428;2023-04-10T01:38:23;102031.56;;;8.02;72.99
72116;BME280;59991;52.140;5.428;2023-04-10T01:38:57;102029.16;;;8.01;72.90
72116;BME280;59991;52.140;5.428;2023-04-10T01:39:29;102028.84;;;8.02;72.87
72116;BME280;59991;52.140;5.428;2023-04-10T01:40:03;102021.81;;;8.01;72.64
72116;BME280;59991;52.140;5.428;2023-04-10T01:40:38;102019.91;;;8.02;73.23
72116;BME280;59991;52.140;5.428;2023-04-10T01:41:12;102020.69;;;8.02;73.08
72116;BME280;59991;52.140;5.428;2023-04-10T01:41:45;102026.91;;;8.03;73.03
72116;BME280;59991;52.140;5.428;2023-04-10T01:42:18;102025.00;;;8.03;73.01
72116;BME280;59991;52.140;5.428;2023-04-10T01:42:53;102015.72;;;8.04;73.09
72116;BME280;59991;52.140;5.428;2023-04-10T01:43:26;102015.41;;;8.06;73.07
72116;BME280;59991;52.140;5.428;2023-04-10T01:44:02;102013.47;;;8.06;72.82
72116;BME280;59991;52.140;5.428;2023-04-10T01:44:37;102022.44;;;8.07;72.59
72116;BME280;59991;52.140;5.428;2023-04-10T01:45:14;102022.75;;;8.05;72.85
72116;BME280;59991;52.140;5.428;2023-04-10T01:45:50;102022.75;;;8.05;72.74
72116;BME280;59991;52.140;5.428;2023-04-10T01:46:22;102018.13;;;8.06;72.84
72116;BME280;59991;52.140;5.428;2023-04-10T01:46:55;102021.63;;;8.06;72.79
72116;BME280;59991;52.140;5.428;2023-04-10T01:47:28;102018.13;;;8.06;72.92
72116;BME280;59991;52.140;5.428;2023-04-10T01:48:00;102026.25;;;8.06;72.92
72116;BME280;59991;52.140;5.428;2023-04-10T01:48:32;102014.59;;;8.05;72.84
72116;BME280;59991;52.140;5.428;2023-04-10T01:49:04;102020.03;;;8.05;72.67
72116;BME280;59991;52.140;5.428;2023-04-10T01:49:37;102014.59;;;8.05;72.63
72116;BME280;59991;52.140;5.428;2023-04-10T01:50:15;102016.19;;;8.06;72.71
72116;BME280;59991;52.140;5.428;2023-04-10T01:50:47;102013.47;;;8.06;72.88
72116;BME280;59991;52.140;5.428;2023-04-10T01:51:19;102010.75;;;8.06;72.79
72116;BME280;59991;52.140;5.428;2023-04-10T01:51:52;102013.91;;;8.08;72.88
72116;BME280;59991;52.140;5.428;2023-04-10T01:52:29;102012.34;;;8.07;72.32
72116;BME280;59991;52.140;5.428;2023-04-10T01:53:03;102013.16;;;8.08;72.20
72116;BME280;59991;52.140;5.428;2023-04-10T01:53:37;102013.91;;;8.08;72.31
72116;BME280;59991;52.140;5.428;2023-04-10T01:54:10;102008.84;;;8.07;72.81
72116;BME280;59991;52.140;5.428;2023-04-10T01:54:42;102013.91;;;8.08;72.67
72116;BME280;59991;52.140;5.428;2023-04-10T01:55:16;102008.84;;;8.07;72.38
72116;BME280;59991;52.140;5.428;2023-04-10T01:55:49;102010.44;;;8.08;72.19
72116;BME280;59991;52.140;5.428;2023-04-10T01:56:21;102015.06;;;8.07;72.69
72116;BME280;59991;52.140;5.428;2023-04-10T01:56:52;102010.75;;;8.06;72.54
72116;BME280;59991;52.140;5.428;2023-04-10T01:57:24;102013.16;;;8.08;72.83
72116;BME280;59991;52.140;5.428;2023-04-10T01:57:56;102018.59;;;8.08;72.87
72116;BME280;59991;52.140;5.428;2023-04-10T01:58:29;102017.78;;;8.07;72.99
72116;BME280;59991;52.140;5.428;2023-04-10T01:59:01;102012.69;;;8.06;72.66
72116;BME280;59991;52.140;5.428;2023-04-10T01:59:34;102013.16;;;8.08;72.48
72116;BME280;59991;52.140;5.428;2023-04-10T02:00:08;102017.78;;;8.07;73.23
72116;BME280;59991;52.140;5.428;2023-04-10T02:00:41;102016.19;;;8.06;72.79
72116;BME280;59991;52.140;5.428;2023-04-10T02:01:20;102012.34;;;8.07;72.79
72116;BME280;59991;52.140;5.428;2023-04-10T02:02:00;102007.25;;;8.06;72.84
72116;BME280;59991;52.140;5.428;2023-04-10T02:02:32;102006.47;;;8.05;73.09
72116;BME280;59991;52.140;5.428;2023-04-10T02:03:04;102008.84;;;8.07;72.96
72116;BME280;59991;52.140;5.428;2023-04-10T02:03:36;102012.34;;;8.07;72.53
72116;BME280;59991;52.140;5.428;2023-04-10T02:04:08;102006.13;;;8.07;73.09
72116;BME280;59991;52.140;5.428;2023-04-10T02:04:40;102009.63;;;8.07;72.49
72116;BME280;59991;52.140;5.428;2023-04-10T02:05:14;102000.69;;;8.07;72.64
72116;BME280;59991;52.140;5.428;2023-04-10T02:06:02;101991.41;;;8.08;72.50
72116;BME280;59991;52.140;5.428;2023-04-10T02:07:01;101994.91;;;8.08;72.16
72116;BME280;59991;52.140;5.428;2023-04-10T02:08:38;102002.28;;;8.08;72.42
72116;BME280;59991;52.140;5.428;2023-04-10T02:09:17;101996.84;;;8.08;72.61
72116;BME280;59991;52.140;5.428;2023-04-10T02:10:48;101997.63;;;8.08;72.74
72116;BME280;59991;52.140;5.428;2023-04-10T02:11:30;101993.34;;;8.07;72.73
72116;BME280;59991;52.140;5.428;2023-04-10T02:12:06;101998.78;;;8.07;72.89
72116;BME280;59991;52.140;5.428;2023-04-10T02:12:50;101997.63;;;8.08;72.71
72116;BME280;59991;52.140;5.428;2023-04-10T02:13:25;101997.97;;;8.07;72.57
72116;BME280;59991;52.140;5.428;2023-04-10T02:14:03;101996.06;;;8.07;73.10
72116;BME280;59991;52.140;5.428;2023-04-10T02:14:37;101994.91;;;8.08;72.78
72116;BME280;59991;52.140;5.428;2023-04-10T02:15:11;101998.41;;;8.09;72.56
72116;BME280;59991;52.140;5.428;2023-04-10T02:15:45;101990.25;;;8.09;72.88
72116;BME280;59991;52.140;5.428;2023-04-10T02:16:18;101995.69;;;8.09;72.80
72116;BME280;59991;52.140;5.428;2023-04-10T02:16:54;101994.91;;;8.08;72.66
72116;BME280;59991;52.140;5.428;2023-04-10T02:17:28;101992.97;;;8.09;72.55
72116;BME280;59991;52.140;5.428;2023-04-10T02:18:01;101991.41;;;8.08;72.54
72116;BME280;59991;52.140;5.428;2023-04-10T02:18:36;101989.47;;;8.08;72.64
72116;BME280;59991;52.140;5.428;2023-04-10T02:19:09;101993.78;;;8.09;72.75
72116;BME280;59991;52.140;5.428;2023-04-10T02:19:42;101990.25;;;8.09;72.51
72116;BME280;59991;52.140;5.428;2023-04-10T02:20:16;101994.56;;;8.10;73.06
72116;BME280;59991;52.140;5.428;2023-04-10T02:20:49;101993.78;;;8.09;72.76
72116;BME280;59991;52.140;5.428;2023-04-10T02:21:20;101991.84;;;8.10;72.81
72116;BME280;59991;52.140;5.428;2023-04-10T02:21:52;101989.94;;;8.10;72.95
72116;BME280;59991;52.140;5.428;2023-04-10T02:22:24;101995.38;;;8.10;72.60
72116;BME280;59991;52.140;5.428;2023-04-10T02:22:57;101994.56;;;8.10;72.72
72116;BME280;59991;52.140;5.428;2023-04-10T02:23:34;101995.38;;;8.10;72.61
72116;BME280;59991;52.140;5.428;2023-04-10T02:24:07;101996.16;;;8.11;72.75
72116;BME280;59991;52.140;5.428;2023-04-10T02:24:38;101989.94;;;8.10;72.90
72116;BME280;59991;52.140;5.428;2023-04-10T02:25:10;101996.97;;;8.11;73.03
72116;BME280;59991;52.140;5.428;2023-04-10T02:25:42;101989.59;;;8.12;72.53
72116;BME280;59991;52.140;5.428;2023-04-10T02:26:13;101984.50;;;8.10;72.65
72116;BME280;59991;52.140;5.428;2023-04-10T02:26:51;101991.53;;;8.11;72.60
72116;BME280;59991;52.140;5.428;2023-04-10T02:27:30;101988.00;;;8.11;72.71
72116;BME280;59991;52.140;5.428;2023-04-10T02:28:03;101989.94;;;8.10;72.93
72116;BME280;59991;52.140;5.428;2023-04-10T02:28:38;101984.50;;;8.10;72.92
72116;BME280;59991;52.140;5.428;2023-04-10T02:29:10;101982.91;;;8.09;72.84
72116;BME280;59991;52.140;5.428;2023-04-10T02:29:42;101986.09;;;8.11;72.58
72116;BME280;59991;52.140;5.428;2023-04-10T02:30:13;101989.59;;;8.12;72.76
72116;BME280;59991;52.140;5.428;2023-04-10T02:30:45;101985.28;;;8.11;72.80
72116;BME280;59991;52.140;5.428;2023-04-10T02:31:16;101986.09;;;8.11;72.44
72116;BME280;59991;52.140;5.428;2023-04-10T02:31:48;101980.66;;;8.11;72.95
72116;BME280;59991;52.140;5.428;2023-04-10T02:32:20;101980.66;;;8.11;72.69
72116;BME280;59991;52.140;5.428;2023-04-10T02:32:52;101983.38;;;8.11;72.82
72116;BME280;59991;52.140;5.428;2023-04-10T02:33:23;101984.97;;;8.12;72.92
72116;BME280;59991;52.140;5.428;2023-04-10T02:33:55;101980.66;;;8.11;72.96
72116;BME280;59991;52.140;5.428;2023-04-10T02:34:26;101994.25;;;8.11;72.99
72116;BME280;59991;52.140;5.428;2023-04-10T02:34:58;101983.38;;;8.11;73.01
72116;BME280;59991;52.140;5.428;2023-04-10T02:35:30;101980.66;;;8.11;72.78
72116;BME280;59991;52.140;5.428;2023-04-10T02:36:02;101982.59;;;8.11;73.04
72116;BME280;59991;52.140;5.428;2023-04-10T02:36:35;101982.91;;;8.09;73.36
72116;BME280;59991;52.140;5.428;2023-04-10T02:37:06;101988.34;;;8.09;73.07
72116;BME280;59991;52.140;5.428;2023-04-10T02:37:38;101988.34;;;8.09;73.27
72116;BME280;59991;52.140;5.428;2023-04-10T02:38:10;101989.13;;;8.10;72.79
72116;BME280;59991;52.140;5.428;2023-04-10T02:38:41;101988.34;;;8.09;72.64
72116;BME280;59991;52.140;5.428;2023-04-10T02:39:13;101991.06;;;8.09;73.15
72116;BME280;59991;52.140;5.428;2023-04-10T02:39:44;101987.53;;;8.09;72.87
72116;BME280;59991;52.140;5.428;2023-04-10T02:40:16;101986.75;;;8.08;73.25
72116;BME280;59991;52.140;5.428;2023-04-10T02:40:48;101993.34;;;8.07;73.29
72116;BME280;59991;52.140;5.428;2023-04-10T02:41:20;101995.25;;;8.07;73.30
72116;BME280;59991;52.140;5.428;2023-04-10T02:41:52;101992.88;;;8.05;73.30
72116;BME280;59991;52.140;5.428;2023-04-10T02:42:24;101992.88;;;8.05;73.06
72116;BME280;59991;52.140;5.428;2023-04-10T02:42:55;101992.88;;;8.05;73.23
72116;BME280;59991;52.140;5.428;2023-04-10T02:43:27;101993.19;;;8.04;73.09
72116;BME280;59991;52.140;5.428;2023-04-10T02:43:59;101990.16;;;8.05;73.35
72116;BME280;59991;52.140;5.428;2023-04-10T02:44:31;101991.28;;;8.04;73.14
72116;BME280;59991;52.140;5.428;2023-04-10T02:45:03;101987.78;;;8.04;73.15
72116;BME280;59991;52.140;5.428;2023-04-10T02:45:35;101991.28;;;8.04;72.91
72116;BME280;59991;52.140;5.428;2023-04-10T02:46:06;101987.78;;;8.04;73.33
72116;BME280;59991;52.140;5.428;2023-04-10T02:46:38;101985.84;;;8.04;73.31
72116;BME280;59991;52.140;5.428;2023-04-10T02:47:09;101990.50;;;8.04;73.15
72116;BME280;59991;52.140;5.428;2023-04-10T02:47:41;101979.94;;;8.02;73.34
72116;BME280;59991;52.140;5.428;2023-04-10T02:48:12;101979.94;;;8.02;73.05
72116;BME280;59991;52.140;5.428;2023-04-10T02:48:44;101983.00;;;8.01;73.10
72116;BME280;59991;52.140;5.428;2023-04-10T02:49:16;101981.06;;;8.01;73.25
72116;BME280;59991;52.140;5.428;2023-04-10T02:50:05;101981.88;;;8.02;73.10
72116;BME280;59991;52.140;5.428;2023-04-10T02:50:37;101985.72;;;8.01;73.30
72116;BME280;59991;52.140;5.428;2023-04-10T02:51:09;101983.78;;;8.01;73.50
72116;BME280;59991;52.140;5.428;2023-04-10T02:51:40;101986.03;;;7.99;73.33
72116;BME280;59991;52.140;5.428;2023-04-10T02:52:12;101983.31;;;7.99;73.21
72116;BME280;59991;52.140;5.428;2023-04-10T02:52:43;101984.13;;;8.00;73.50
72116;BME280;59991;52.140;5.428;2023-04-10T02:53:15;101984.13;;;8.00;73.31
72116;BME280;59991;52.140;5.428;2023-04-10T02:53:47;101980.59;;;7.99;73.42
72116;BME280;59991;52.140;5.428;2023-04-10T02:54:18;101989.56;;;8.00;73.42
72116;BME280;59991;52.140;5.428;2023-04-10T02:54:50;101989.56;;;8.00;73.37
72116;BME280;59991;52.140;5.428;2023-04-10T02:55:22;101987.97;;;7.98;73.10
72116;BME280;59991;52.140;5.428;2023-04-10T02:55:53;101986.03;;;7.99;73.51
72116;BME280;59991;52.140;5.428;2023-04-10T02:56:25;101987.97;;;7.98;73.13
72116;BME280;59991;52.140;5.428;2023-04-10T02:56:57;101983.31;;;7.99;73.27
72116;BME280;59991;52.140;5.428;2023-04-10T02:57:28;101983.31;;;7.99;73.14
72116;BME280;59991;52.140;5.428;2023-04-10T02:58:00;101982.53;;;7.98;73.20
72116;BME280;59991;52.140;5.428;2023-04-10T02:58:31;101982.53;;;7.98;73.07
72116;BME280;59991;52.140;5.428;2023-04-10T02:59:03;101984.13;;;8.00;73.04
72116;BME280;59991;52.140;5.428;2023-04-10T02:59:34;101985.72;;;8.01;73.25
72116;BME280;59991;52.140;5.428;2023-04-10T03:00:07;101980.59;;;7.99;73.38
72116;BME280;59991;52.140;5.428;2023-04-10T03:00:38;101984.91;;;8.00;73.39
72116;BME280;59991;52.140;5.428;2023-04-10T03:01:11;101990.34;;;8.00;73.01
72116;BME280;59991;52.140;5.428;2023-04-10T03:01:44;101981.41;;;8.00;73.18
72116;BME280;59991;52.140;5.428;2023-04-10T03:02:16;101990.34;;;8.00;73.48
72116;BME280;59991;52.140;5.428;2023-04-10T03:02:48;101994.97;;;8.00;73.40
72116;BME280;59991;52.140;5.428;2023-04-10T03:03:19;101986.84;;;8.00;73.42
72116;BME280;59991;52.140;5.428;2023-04-10T03:03:51;101998.50;;;8.00;73.45
72116;BME280;59991;52.140;5.428;2023-04-10T03:04:23;101997.38;;;8.01;73.41
72116;BME280;59991;52.140;5.428;2023-04-10T03:04:55;101999.28;;;8.01;73.68
72116;BME280;59991;52.140;5.428;2023-04-10T03:05:27;101998.16;;;8.02;73.24